This demonstration page uses our WeatherBlox Daily Observations layout. Learn more.

38.89511, -77.03637

Hourly Observations for January 16, 2015

Temp ( °F °C ) Dew Point ( °F °C ) Humidity (%) Winds ( mph kmh ) Pressure ( in mb ) Visibility ( mi km ) Precip ( " mm )
12:52 am 00:52 Clear 30 -1 25 -4 80 80 SSW 6 9 30.03 1017 9 14.484096 0 0
1:52 am 01:52 Clear 30 -1 25 -4 80 80 S 3 6 30 1016 7 11.265408 0 0
2:52 am 02:52 Mostly Clear 30 -1 27 -3 86 86 S 5 7 30 1016 7 11.265408 0 0
3:52 am 03:52 Mostly Clear 30 -1 25 -4 80 80 S 5 7 29.97 1015 7 11.265408 0 0
4:52 am 04:52 Mostly Clear 30 -1 25 -4 80 80 Calm 29.97 1015 7 11.265408 0 0
5:52 am 05:52 Mostly Clear 28 -2 23 -5 80 80 SSW 5 7 29.97 1015 8 12.874752 0 0
6:52 am 06:52 Clear 30 -1 25 -4 80 80 SSW 6 9 29.97 1015 10 16.09344 0 0
7:52 am 07:52 Sunny 30 -1 25 -4 80 80 S 7 11 30 1016 8 12.874752 0 0
8:52 am 08:52 Sunny 34 1 27 -3 75 75 S 9 15 30 1016 8 12.874752 0 0
9:52 am 09:52 Sunny 45 7 23 -5 42 42 WNW 17 28 30.03 1017 10 16.09344 0 0
10:52 am 10:52 Partly Cloudy 46 8 23 -5 40 40 WNW 14 22 30.03 1017 10 16.09344 0 0
11:52 am 11:52 Partly Cloudy 46 8 25 -4 43 43 WNW 22 35 30.03 1017 10 16.09344 0 0
12:52 pm 12:52 Partly Cloudy 46 8 23 -5 40 40 W 22 35 30.03 1017 10 16.09344 0 0
1:52 pm 13:52 Partly Cloudy 48 9 23 -5 37 37 WNW 7 11 30 1016 10 16.09344 0 0
2:52 pm 14:52 Partly Cloudy 46 8 21 -6 37 37 WNW 17 28 30.03 1017 10 16.09344 0 0
3:52 pm 15:52 Partly Cloudy 46 8 21 -6 37 37 NW 13 20 30.06 1018 10 16.09344 0 0
4:52 pm 16:52 Partly Cloudy 45 7 19 -7 37 37 NW 15 24 30.06 1018 10 16.09344 0 0
5:52 pm 17:52 Mostly Clear 43 6 19 -7 39 39 WNW 13 20 30.09 1019 10 16.09344 0 0
6:52 pm 18:52 Clear 41 5 21 -6 45 45 WNW 7 11 30.12 1020 10 16.09344 0 0
7:52 pm 19:52 Clear 39 4 21 -6 48 48 W 6 9 30.15 1021 10 16.09344 0 0
8:52 pm 20:52 Clear 39 4 21 -6 48 48 WNW 6 9 30.18 1022 10 16.09344 0 0
9:52 pm 21:52 Partly Cloudy 37 3 21 -6 52 52 N 7 11 30.21 1023 10 16.09344 0 0
10:52 pm 22:52 Mostly Cloudy 37 3 19 -7 48 48 N 14 22 30.24 1024 10 16.09344 0 0
11:52 pm 23:52 Mostly Cloudy 36 2 18 -8 48 48 NNE 10 17 30.27 1025 10 16.09344 0 0

Powered by AerisWeather